Time;durP1;ratioP1;P1;durP2;ratioP2;P2;SDS_P1;SDS_P2;PMS_P1;PMS_P2;Temp;Humidity;BMP_temperature;BMP_pressure;BME280_temperature;BME280_humidity;BME280_pressure;Samples;Min_cycle;Max_cycle;Signal;HPM_P1;HPM_P2
2022/04/08 00:00:26;;;;;;;19.67;3.38;;;;;;;5.40;nan;99703.94;5053738;28;20135;-66
2022/04/08 00:02:52;;;;;;;8.95;2.78;;;;;;;5.05;nan;99655.41;5054837;28;20033;-66
2022/04/08 00:05:18;;;;;;;10.48;2.42;;;;;;;5.35;nan;99711.06;5053874;28;20120;-69
2022/04/08 00:07:43;;;;;;;16.38;3.13;;;;;;;5.37;nan;99729.31;5054817;28;20079;-66
2022/04/08 00:10:09;;;;;;;9.98;2.20;;;;;;;5.28;nan;99712.16;5055265;28;20029;-66
2022/04/08 00:12:34;;;;;;;17.92;2.80;;;;;;;5.30;nan;99725.16;5053728;28;20039;-69
2022/04/08 00:15:00;;;;;;;14.95;3.42;;;;;;;5.32;nan;99747.69;5054718;28;20037;-67
2022/04/08 00:17:25;;;;;;;15.05;3.17;;;;;;;5.12;nan;99710.88;5054594;28;20486;-69
2022/04/08 00:19:51;;;;;;;11.10;2.45;;;;;;;5.04;nan;99736.31;5054548;28;20458;-67
2022/04/08 00:22:18;;;;;;;12.48;2.13;;;;;;;4.94;nan;99720.06;5070101;28;20126;-66
2022/04/08 00:24:44;;;;;;;12.70;2.92;;;;;;;4.88;nan;99732.41;5054632;28;20060;-66
2022/04/08 00:27:09;;;;;;;14.43;2.92;;;;;;;4.37;nan;99648.63;5054216;28;20146;-67
2022/04/08 00:29:35;;;;;;;9.95;2.33;;;;;;;4.44;nan;99656.25;5054362;28;20255;-66
2022/04/08 00:32:00;;;;;;;6.53;2.03;;;;;;;4.83;nan;99723.84;5052885;28;20087;-65
2022/04/08 00:34:29;;;;;;;11.07;2.38;;;;;;;4.87;nan;99725.50;5054639;28;20033;-67
2022/04/08 00:36:55;;;;;;;16.10;2.72;;;;;;;4.50;nan;99665.66;5054510;28;20083;-66
2022/04/08 00:39:24;;;;;;;12.45;2.83;;;;;;;4.46;nan;99672.72;5054152;28;20161;-68
2022/04/08 00:41:50;;;;;;;12.25;2.30;;;;;;;4.87;nan;99743.75;5054470;28;20073;-66
2022/04/08 00:44:15;;;;;;;14.25;2.50;;;;;;;4.89;nan;99752.38;5069752;28;20425;-68
2022/04/08 00:46:43;;;;;;;8.60;2.17;;;;;;;4.93;nan;99744.41;5054158;28;20037;-68
2022/04/08 00:49:08;;;;;;;13.27;2.33;;;;;;;4.87;nan;99743.75;5053022;28;20037;-65
2022/04/08 00:51:34;;;;;;;9.55;2.20;;;;;;;3.76;nan;99569.50;5069630;28;20116;-68
2022/04/08 00:53:59;;;;;;;17.15;2.95;;;;;;;4.51;nan;99711.66;5054078;28;20095;-66
2022/04/08 00:56:28;;;;;;;10.45;2.22;;;;;;;4.80;nan;99770.88;5052890;28;20041;-68
2022/04/08 00:58:54;;;;;;;12.85;2.50;;;;;;;4.40;nan;99713.69;5053758;28;20440;-66
2022/04/08 01:01:19;;;;;;;12.68;2.65;;;;;;;4.69;nan;99767.69;5052593;28;20045;-66
2022/04/08 01:03:46;;;;;;;13.27;2.20;;;;;;;4.57;nan;99761.03;5069419;28;20047;-67
2022/04/08 01:06:11;;;;;;;13.95;3.38;;;;;;;4.67;nan;99787.72;5052830;28;20039;-67
2022/04/08 01:08:38;;;;;;;12.88;2.00;;;;;;;4.63;nan;99767.84;5053820;28;20037;-65
2022/04/08 01:11:04;;;;;;;17.20;2.60;;;;;;;4.74;nan;99773.63;5069350;28;20029;-68
2022/04/08 01:13:29;;;;;;;12.48;3.33;;;;;;;4.60;nan;99737.50;5053501;28;20396;-66
2022/04/08 01:15:54;;;;;;;12.98;2.50;;;;;;;4.59;nan;99753.16;5054079;28;20041;-66
2022/04/08 01:18:20;;;;;;;16.77;2.85;;;;;;;4.55;nan;99771.47;5052317;28;20494;-65
2022/04/08 01:20:45;;;;;;;14.73;2.70;;;;;;;4.51;nan;99762.03;5053311;28;20045;-67
2022/04/08 01:23:11;;;;;;;9.98;2.00;;;;;;;4.60;nan;99773.13;5053439;28;20025;-67
2022/04/08 01:25:37;;;;;;;12.70;2.60;;;;;;;4.54;nan;99754.16;5068779;28;20286;-68
2022/04/08 01:28:02;;;;;;;12.20;2.75;;;;;;;4.64;nan;99777.38;5053405;28;20420;-67
2022/04/08 01:30:28;;;;;;;16.67;3.15;;;;;;;4.69;nan;99757.25;5053272;28;20033;-67
2022/04/08 01:32:53;;;;;;;11.10;2.92;;;;;;;4.71;nan;99745.88;5068797;28;20037;-65
2022/04/08 01:35:18;;;;;;;13.50;3.05;;;;;;;4.94;nan;99784.38;5051868;28;20041;-67
2022/04/08 01:37:44;;;;;;;13.82;2.50;;;;;;;4.71;nan;99735.47;5053163;28;20043;-67
2022/04/08 01:40:10;;;;;;;16.20;2.53;;;;;;;5.01;nan;99789.41;5052974;28;20056;-65
2022/04/08 01:42:35;;;;;;;15.77;3.25;;;;;;;4.48;nan;99738.66;5052796;28;20048;-67
2022/04/08 01:45:00;;;;;;;10.50;2.50;;;;;;;4.92;nan;99807.06;5051603;28;20041;-66
2022/04/08 01:47:26;;;;;;;7.13;1.88;;;;;;;4.24;nan;99751.41;5053034;28;20043;-68
2022/04/08 01:49:51;;;;;;;3.95;1.20;;;;;;;4.39;nan;99795.34;5052923;28;20480;-65
2022/04/08 01:52:16;;;;;;;9.43;2.03;;;;;;;4.39;nan;99808.38;5053004;28;20090;-65
2022/04/08 01:54:42;;;;;;;6.75;1.77;;;;;;;4.18;nan;99803.66;5052928;28;20036;-67
2022/04/08 01:57:07;;;;;;;5.20;1.77;;;;;;;4.06;nan;99817.81;5052975;28;20040;-68
2022/04/08 01:59:32;;;;;;;9.75;1.92;;;;;;;3.89;nan;99799.09;5052537;28;20120;-65
2022/04/08 02:02:02;;;;;;;9.27;1.80;;;;;;;3.90;nan;99819.06;5052994;28;20032;-65
2022/04/08 02:04:28;;;;;;;10.20;2.67;;;;;;;3.82;nan;99810.56;5051589;28;20037;-66
2022/04/08 02:06:54;;;;;;;10.65;2.03;;;;;;;3.79;nan;99808.88;5052674;28;20052;-66
2022/04/08 02:09:19;;;;;;;5.13;2.25;;;;;;;3.73;nan;99798.59;5067945;28;20076;-68
2022/04/08 02:11:45;;;;;;;6.80;2.47;;;;;;;3.76;nan;99795.94;5052278;28;20029;-66
2022/04/08 02:14:10;;;;;;;13.93;2.33;;;;;;;3.49;nan;99726.25;5051256;28;20043;-67
2022/04/08 02:16:35;;;;;;;11.32;2.63;;;;;;;3.72;nan;99754.38;5052743;28;20040;-64
2022/04/08 02:19:01;;;;;;;8.95;2.20;;;;;;;3.79;nan;99727.31;5052682;28;20517;-66
2022/04/08 02:21:27;;;;;;;6.85;2.03;;;;;;;4.29;nan;99804.28;5067678;28;20041;-65
2022/04/08 02:23:53;;;;;;;7.60;2.33;;;;;;;4.39;nan;99813.59;5052421;28;20178;-68
2022/04/08 02:26:18;;;;;;;7.32;2.60;;;;;;;4.38;nan;99815.31;5052351;28;20033;-68
2022/04/08 02:28:44;;;;;;;7.00;2.08;;;;;;;4.30;nan;99772.13;5052223;28;20041;-67
2022/04/08 02:31:10;;;;;;;8.32;1.75;;;;;;;4.06;nan;99731.88;5052490;28;20061;-67
2022/04/08 02:33:35;;;;;;;9.15;2.47;;;;;;;4.16;nan;99737.72;5052171;28;20120;-67
2022/04/08 02:36:00;;;;;;;7.15;2.42;;;;;;;4.59;nan;99793.09;5052252;28;20037;-68
2022/04/08 02:38:26;;;;;;;8.27;2.47;;;;;;;4.62;nan;99803.47;5051000;28;20041;-68
2022/04/08 02:40:51;;;;;;;5.82;1.85;;;;;;;4.24;nan;99731.44;5051805;28;20118;-68
2022/04/08 02:43:17;;;;;;;6.20;2.20;;;;;;;4.60;nan;99800.03;5052026;28;20068;-66
2022/04/08 02:45:42;;;;;;;9.07;2.22;;;;;;;4.50;nan;99806.34;5052400;28;20065;-69
2022/04/08 02:48:07;;;;;;;6.50;2.40;;;;;;;4.10;nan;99732.66;5052267;28;20052;-64
2022/04/08 02:50:33;;;;;;;9.07;1.90;;;;;;;3.92;nan;99720.94;5052055;28;20119;-66
2022/04/08 02:52:58;;;;;;;9.68;2.28;;;;;;;4.35;nan;99819.78;5052166;28;20469;-66
2022/04/08 02:55:23;;;;;;;7.13;2.55;;;;;;;3.94;nan;99743.44;5052094;28;20475;-67
2022/04/08 02:57:50;;;;;;;9.23;2.10;;;;;;;4.21;nan;99800.97;5051904;28;20037;-66
2022/04/08 03:00:17;;;;;;;7.32;2.05;;;;;;;3.83;nan;99755.84;5051980;28;20477;-68
2022/04/08 03:02:46;;;;;;;10.00;2.10;;;;;;;3.79;nan;99751.63;5052037;28;20033;-66
2022/04/08 03:05:12;;;;;;;6.95;1.90;;;;;;;4.16;nan;99821.06;5050635;28;20026;-65
2022/04/08 03:07:37;;;;;;;4.60;1.40;;;;;;;4.21;nan;99827.88;5051827;28;20078;-65
2022/04/08 03:10:04;;;;;;;6.32;1.75;;;;;;;4.22;nan;99820.94;5051793;28;20370;-67
2022/04/08 03:12:31;;;;;;;4.45;1.85;;;;;;;4.20;nan;99833.16;5051710;28;20033;-66
2022/04/08 03:14:57;;;;;;;7.88;1.70;;;;;;;4.07;nan;99831.69;5051861;28;20482;-67
2022/04/08 03:17:22;;;;;;;7.38;2.10;;;;;;;4.14;nan;99844.56;5051816;28;20075;-68
2022/04/08 03:19:48;;;;;;;8.77;1.95;;;;;;;4.05;nan;99841.28;5050554;28;20061;-66
2022/04/08 03:22:13;;;;;;;9.80;2.42;;;;;;;3.67;nan;99770.09;5051707;28;20032;-67
2022/04/08 03:24:38;;;;;;;6.82;2.03;;;;;;;3.79;nan;99772.44;5051729;28;20128;-69
2022/04/08 03:27:04;;;;;;;6.63;1.92;;;;;;;4.12;nan;99828.09;5051574;28;20047;-68
2022/04/08 03:29:29;;;;;;;12.00;2.05;;;;;;;4.15;nan;99835.84;5068713;28;20128;-66
2022/04/08 03:31:54;;;;;;;7.40;1.73;;;;;;;4.16;nan;99836.69;5055741;28;20128;-66
2022/04/08 03:34:20;;;;;;;12.25;2.00;;;;;;;3.82;nan;99772.34;5055461;28;20120;-69
2022/04/08 03:36:47;;;;;;;13.00;2.15;;;;;;;4.15;nan;99846.25;5055377;28;20039;-67
2022/04/08 03:39:13;;;;;;;5.70;1.42;;;;;;;4.12;nan;99827.22;5053799;28;20099;-68
2022/04/08 03:41:41;;;;;;;8.55;2.10;;;;;;;4.12;nan;99827.22;5055061;28;20043;-64
2022/04/08 03:44:07;;;;;;;6.90;1.65;;;;;;;4.04;nan;99819.59;5055528;28;20033;-66
2022/04/08 03:46:32;;;;;;;5.50;2.03;;;;;;;4.04;nan;99824.81;5055185;28;20037;-63
2022/04/08 03:48:58;;;;;;;9.32;1.75;;;;;;;4.08;nan;99823.84;5055231;28;20033;-67
2022/04/08 03:51:24;;;;;;;9.32;1.90;;;;;;;3.52;nan;99741.78;5070448;28;20080;-69
2022/04/08 03:53:49;;;;;;;7.65;1.65;;;;;;;4.03;nan;99825.69;5054981;28;20064;-66
2022/04/08 03:56:15;;;;;;;8.68;1.88;;;;;;;3.78;nan;99788.94;5055080;28;20029;-68
2022/04/08 03:58:40;;;;;;;10.27;1.98;;;;;;;3.55;nan;99749.53;5055240;28;20079;-68
2022/04/08 04:01:05;;;;;;;6.30;1.67;;;;;;;3.41;nan;99752.41;5055011;28;20094;-69
2022/04/08 04:03:31;;;;;;;9.57;1.67;;;;;;;3.63;nan;99763.22;5055130;28;20043;-69
2022/04/08 04:05:56;;;;;;;10.27;2.30;;;;;;;3.51;nan;99758.28;5055037;28;20478;-66
2022/04/08 04:08:21;;;;;;;6.35;1.73;;;;;;;3.84;nan;99825.25;5054924;28;20029;-67
2022/04/08 04:10:48;;;;;;;7.88;1.48;;;;;;;3.79;nan;99826.22;5054831;28;20041;-63
2022/04/08 04:13:14;;;;;;;7.72;2.05;;;;;;;3.82;nan;99824.41;5070313;28;20470;-65
2022/04/08 04:15:39;;;;;;;8.82;1.73;;;;;;;3.81;nan;99820.09;5054537;28;20051;-68
2022/04/08 04:18:05;;;;;;;9.07;1.95;;;;;;;3.39;nan;99749.00;5054645;28;20545;-64
2022/04/08 04:20:31;;;;;;;10.98;2.17;;;;;;;3.74;nan;99808.09;5054486;28;20541;-65
2022/04/08 04:22:56;;;;;;;4.90;1.65;;;;;;;3.85;nan;99815.69;5054568;28;20056;-67
2022/04/08 04:25:21;;;;;;;12.15;1.90;;;;;;;3.48;nan;99760.94;5054481;28;20473;-65
2022/04/08 04:27:47;;;;;;;9.88;1.63;;;;;;;3.77;nan;99815.84;5070125;28;20052;-65
2022/04/08 04:30:12;;;;;;;10.13;2.35;;;;;;;3.74;nan;99810.69;5053082;28;20082;-68
2022/04/08 04:32:38;;;;;;;7.28;1.83;;;;;;;3.62;nan;99810.13;5054738;28;20116;-67
2022/04/08 04:35:06;;;;;;;5.13;1.55;;;;;;;3.17;nan;99736.47;5069897;28;20045;-69
2022/04/08 04:37:41;;;;;;;11.10;1.90;;;;;;;3.61;nan;99817.06;5069417;28;20482;-67
2022/04/08 04:40:08;;;;;;;12.90;2.30;;;;;;;3.59;nan;99825.78;5054268;28;20090;-66
2022/04/08 04:42:33;;;;;;;9.35;1.85;;;;;;;3.47;nan;99800.88;5054504;28;20037;-66
2022/04/08 04:44:59;;;;;;;12.48;2.10;;;;;;;3.19;nan;99771.94;5069704;28;20478;-67
2022/04/08 04:47:24;;;;;;;10.85;1.70;;;;;;;3.39;nan;99807.94;5054128;28;20029;-68
2022/04/08 04:49:49;;;;;;;10.68;1.90;;;;;;;3.44;nan;99811.34;5053933;28;20069;-67
2022/04/08 04:52:15;;;;;;;9.07;2.38;;;;;;;3.19;nan;99747.69;5053897;28;20112;-69
2022/04/08 04:54:41;;;;;;;7.57;1.83;;;;;;;3.24;nan;99745.88;5054161;28;20032;-67
2022/04/08 04:57:06;;;;;;;3.58;1.88;;;;;;;3.64;nan;99792.72;5054269;28;20120;-66
2022/04/08 04:59:32;;;;;;;7.07;2.53;;;;;;;3.41;nan;99747.19;5053821;28;20036;-66
2022/04/08 05:01:57;;;;;;;11.35;1.85;;;;;;;3.86;nan;99810.44;5069195;28;20052;-66
2022/04/08 05:04:22;;;;;;;10.30;1.85;;;;;;;3.88;nan;99805.22;5053824;28;20067;-69
2022/04/08 05:06:48;;;;;;;8.40;2.08;;;;;;;3.88;nan;99818.25;5052857;28;20072;-66
2022/04/08 05:09:13;;;;;;;8.30;1.95;;;;;;;3.87;nan;99811.31;5053773;28;20118;-67
2022/04/08 05:11:38;;;;;;;13.52;2.15;;;;;;;3.90;nan;99811.25;5053855;28;20117;-65
2022/04/08 05:14:04;;;;;;;9.48;2.17;;;;;;;3.90;nan;99812.09;5053864;28;20124;-66
2022/04/08 05:16:29;;;;;;;8.43;2.20;;;;;;;3.84;nan;99803.56;5053435;28;20481;-65
2022/04/08 05:18:55;;;;;;;15.48;2.83;;;;;;;3.87;nan;99817.38;5053755;28;20033;-68
2022/04/08 05:21:21;;;;;;;9.00;1.92;;;;;;;3.62;nan;99761.50;5068793;28;20037;-68
2022/04/08 05:23:46;;;;;;;6.97;2.00;;;;;;;3.88;nan;99805.22;5053511;28;20033;-65
2022/04/08 05:26:11;;;;;;;8.75;1.75;;;;;;;3.94;nan;99803.31;5053594;28;20028;-66
2022/04/08 05:28:37;;;;;;;9.93;1.92;;;;;;;4.00;nan;99796.28;5052174;28;20060;-65
2022/04/08 05:31:02;;;;;;;9.57;2.22;;;;;;;4.10;nan;99795.16;5053573;28;20033;-68
2022/04/08 05:33:27;;;;;;;6.90;1.92;;;;;;;3.86;nan;99750.56;5053779;28;20521;-66
2022/04/08 05:35:53;;;;;;;6.47;1.50;;;;;;;4.34;nan;99800.69;5053142;28;20477;-68
2022/04/08 05:38:19;;;;;;;5.47;1.55;;;;;;;4.44;nan;99809.09;5053184;28;20078;-65
2022/04/08 05:40:44;;;;;;;5.55;1.50;;;;;;;4.50;nan;99798.53;5053295;28;20056;-65
2022/04/08 05:43:09;;;;;;;7.15;1.80;;;;;;;4.61;nan;99800.91;5053240;28;20037;-65
2022/04/08 05:45:35;;;;;;;7.47;2.05;;;;;;;4.46;nan;99771.72;5051959;28;20474;-64
2022/04/08 05:48:04;;;;;;;9.50;1.92;;;;;;;4.68;nan;99797.25;5053078;28;20033;-65
2022/04/08 05:50:30;;;;;;;10.52;2.22;;;;;;;4.70;nan;99806.72;5052960;28;20529;-67
2022/04/08 05:52:55;;;;;;;12.07;2.10;;;;;;;4.61;nan;99767.03;5067810;28;20112;-64
2022/04/08 05:55:21;;;;;;;8.07;1.88;;;;;;;4.74;nan;99787.53;5053031;28;20032;-66
2022/04/08 05:57:47;;;;;;;4.25;1.60;;;;;;;4.87;nan;99783.72;5068409;28;20033;-65
2022/04/08 06:00:14;;;;;;;7.43;2.25;;;;;;;4.61;nan;99767.03;5052617;28;20040;-66
2022/04/08 06:02:43;;;;;;;7.85;2.60;;;;;;;5.01;nan;99801.59;5052056;28;20543;-66
2022/04/08 06:05:09;;;;;;;12.73;1.90;;;;;;;4.62;nan;99727.88;5051632;28;20029;-66
2022/04/08 06:07:34;;;;;;;7.95;2.03;;;;;;;4.80;nan;99734.34;5068052;28;20119;-67
2022/04/08 06:10:01;;;;;;;10.15;1.85;;;;;;;5.14;nan;99794.31;5051867;28;20540;-68
2022/04/08 06:12:26;;;;;;;11.52;2.45;;;;;;;5.34;nan;99808.50;5050374;28;20041;-66
2022/04/08 06:14:53;;;;;;;13.38;1.80;;;;;;;5.40;nan;99800.50;5067194;28;20091;-68
2022/04/08 06:17:18;;;;;;;9.68;2.28;;;;;;;5.56;nan;99807.03;5052211;28;20032;-68
2022/04/08 06:19:46;;;;;;;8.30;1.85;;;;;;;5.60;nan;99811.25;5051170;28;20086;-67
2022/04/08 06:22:12;;;;;;;10.65;2.38;;;;;;;5.69;nan;99804.94;5067729;28;20045;-65
2022/04/08 06:24:37;;;;;;;10.93;2.35;;;;;;;5.78;nan;99796.78;5068023;28;20044;-65
2022/04/08 06:27:03;;;;;;;9.57;2.30;;;;;;;5.48;nan;99742.88;5052494;28;20124;-64
2022/04/08 06:29:28;;;;;;;13.43;2.60;;;;;;;5.93;nan;99795.53;5051212;28;20159;-66
2022/04/08 06:31:53;;;;;;;11.98;2.50;;;;;;;5.90;nan;99770.34;5052523;28;20182;-64
2022/04/08 06:34:19;;;;;;;10.52;2.22;;;;;;;6.15;nan;99799.22;5067597;28;20493;-67
2022/04/08 06:36:44;;;;;;;8.25;2.60;;;;;;;5.92;nan;99746.81;5052503;28;20037;-67
2022/04/08 06:39:09;;;;;;;10.88;2.22;;;;;;;6.31;nan;99802.19;5051859;28;20482;-68
2022/04/08 06:41:35;;;;;;;7.22;2.10;;;;;;;6.29;nan;99788.31;5050638;28;20127;-66
2022/04/08 06:44:02;;;;;;;10.50;2.17;;;;;;;6.28;nan;99769.16;5051331;28;20033;-66
2022/04/08 06:46:27;;;;;;;8.65;1.98;;;;;;;6.27;nan;99735.25;5051414;28;20489;-65
2022/04/08 06:48:54;;;;;;;12.27;1.85;;;;;;;6.91;nan;99809.81;5051455;28;20029;-67
2022/04/08 06:51:19;;;;;;;15.05;2.58;;;;;;;7.03;nan;99805.03;5066701;28;20127;-67
2022/04/08 06:53:45;;;;;;;11.05;2.95;;;;;;;7.08;nan;99761.22;5051365;28;20112;-66
2022/04/08 06:56:10;;;;;;;10.70;2.00;;;;;;;7.56;nan;99810.94;5050253;28;20033;-67
2022/04/08 06:58:39;;;;;;;9.10;2.15;;;;;;;7.88;nan;99808.00;5051426;28;20032;-67
2022/04/08 07:01:07;;;;;;;8.13;1.83;;;;;;;8.27;nan;99794.28;5051652;28;20069;-64
2022/04/08 07:03:33;;;;;;;10.57;2.53;;;;;;;8.34;nan;99783.53;5066906;28;20033;-66
2022/04/08 07:05:58;;;;;;;7.95;2.58;;;;;;;8.76;nan;99804.53;5055731;28;20366;-63
2022/04/08 07:08:24;;;;;;;7.40;1.95;;;;;;;8.72;nan;99761.00;5037325;28;20041;-65
2022/04/08 07:10:49;;;;;;;15.13;2.50;;;;;;;8.88;nan;99780.41;5055158;28;20108;-67
2022/04/08 07:13:14;;;;;;;6.40;2.13;;;;;;;9.27;nan;99827.75;5055486;28;20029;-67
2022/04/08 07:15:40;;;;;;;6.43;1.55;;;;;;;9.32;nan;99827.53;5055390;28;20473;-65
2022/04/08 07:18:05;;;;;;;8.90;2.22;;;;;;;9.31;nan;99829.28;5055077;28;20040;-64
2022/04/08 07:20:31;;;;;;;12.35;2.15;;;;;;;9.03;nan;99763.16;5055146;28;20041;-65
2022/04/08 07:23:01;;;;;;;12.68;1.58;;;;;;;9.40;nan;99828.91;5055447;28;20033;-65
2022/04/08 07:25:27;;;;;;;9.48;1.77;;;;;;;9.19;nan;99821.13;5055202;28;20497;-65
2022/04/08 07:27:56;;;;;;;6.90;1.55;;;;;;;8.89;nan;99774.25;5055264;28;20072;-66
2022/04/08 07:30:22;;;;;;;6.57;1.60;;;;;;;8.93;nan;99835.34;5055039;28;20393;-68
2022/04/08 07:32:50;;;;;;;8.82;2.00;;;;;;;8.55;nan;99758.22;5054901;28;20039;-66
2022/04/08 07:35:16;;;;;;;9.70;1.83;;;;;;;8.87;nan;99817.22;5069606;28;20548;-67
2022/04/08 07:37:41;;;;;;;7.70;1.88;;;;;;;8.75;nan;99820.34;5054484;28;20033;-68
2022/04/08 07:40:08;;;;;;;7.07;1.85;;;;;;;8.58;nan;99805.28;5054024;28;20145;-67
2022/04/08 07:42:34;;;;;;;7.18;2.10;;;;;;;8.68;nan;99811.00;5069708;28;20033;-67
2022/04/08 07:44:59;;;;;;;9.93;2.47;;;;;;;8.39;nan;99747.50;5069949;28;20089;-68
2022/04/08 07:47:28;;;;;;;5.13;1.70;;;;;;;8.70;nan;99786.41;5069487;28;20040;-67
2022/04/08 07:49:57;;;;;;;8.77;2.05;;;;;;;8.22;nan;99702.72;5054408;28;20057;-66
2022/04/08 07:52:23;;;;;;;7.25;1.83;;;;;;;8.83;nan;99810.38;5054168;28;20463;-70
2022/04/08 07:54:48;;;;;;;8.40;1.70;;;;;;;8.85;nan;99829.53;5053114;28;20037;-67
2022/04/08 07:57:14;;;;;;;9.73;1.77;;;;;;;8.46;nan;99764.66;5053893;28;20095;-67
2022/04/08 07:59:39;;;;;;;5.38;1.48;;;;;;;8.86;nan;99816.38;5053699;28;20037;-68
2022/04/08 08:02:04;;;;;;;4.45;1.70;;;;;;;8.99;nan;99800.94;5069144;28;20505;-68
2022/04/08 08:04:30;;;;;;;11.98;1.77;;;;;;;9.20;nan;99809.66;5052513;28;20052;-67
2022/04/08 08:06:55;;;;;;;9.52;1.77;;;;;;;9.11;nan;99813.53;5052860;28;20499;-68
2022/04/08 08:09:20;;;;;;;7.15;1.60;;;;;;;9.03;nan;99815.66;5052391;28;20074;-65
2022/04/08 08:11:46;;;;;;;8.65;2.10;;;;;;;8.48;nan;99748.88;5053701;28;20040;-66
2022/04/08 08:14:11;;;;;;;9.68;3.25;;;;;;;8.88;nan;99804.03;5053210;28;20047;-67
2022/04/08 08:16:36;;;;;;;3.13;1.42;;;;;;;8.89;nan;99795.25;5052571;28;20040;-66
2022/04/08 08:19:02;;;;;;;5.55;1.73;;;;;;;8.88;nan;99748.06;5053633;28;20047;-68
2022/04/08 08:21:27;;;;;;;7.07;1.90;;;;;;;9.17;nan;99776.53;5053308;28;20047;-69
2022/04/08 08:23:52;;;;;;;5.30;1.65;;;;;;;9.11;nan;99747.09;5053097;28;20039;-67
2022/04/08 08:26:18;;;;;;;5.22;1.50;;;;;;;9.52;nan;99796.00;5053343;28;20059;-69
2022/04/08 08:28:43;;;;;;;5.63;1.90;;;;;;;9.55;nan;99801.97;5068490;28;20041;-67
2022/04/08 08:31:09;;;;;;;7.18;1.77;;;;;;;9.64;nan;99740.25;5053032;28;20021;-67
2022/04/08 08:33:35;;;;;;;8.43;1.95;;;;;;;10.06;nan;99729.53;5053275;28;20110;-65
2022/04/08 08:36:01;;;;;;;7.60;1.45;;;;;;;10.33;nan;99809.78;5053212;28;20111;-65
2022/04/08 08:38:27;;;;;;;3.65;1.40;;;;;;;10.43;nan;99812.81;5051501;28;20481;-66
2022/04/08 08:40:53;;;;;;;5.13;1.48;;;;;;;10.14;nan;99720.38;5051271;28;20053;-65
2022/04/08 08:43:18;;;;;;;6.70;1.88;;;;;;;10.55;nan;99741.19;5052743;28;20051;-65
2022/04/08 08:45:49;;;;;;;9.65;2.00;;;;;;;10.91;nan;99739.34;5051457;28;20033;-69
2022/04/08 08:48:17;;;;;;;5.30;1.60;;;;;;;11.55;nan;99793.94;5068364;28;20056;-69
2022/04/08 08:50:47;;;;;;;7.05;1.70;;;;;;;11.41;nan;99785.91;5052040;28;20080;-66
2022/04/08 08:53:17;;;;;;;5.18;1.67;;;;;;;10.86;nan;99727.34;5068516;28;20112;-69
2022/04/08 08:55:42;;;;;;;4.38;1.38;;;;;;;11.12;nan;99785.63;5051640;28;20110;-68
2022/04/08 08:58:13;;;;;;;5.57;1.65;;;;;;;11.35;nan;99784.47;5051273;28;20036;-68
2022/04/08 09:00:39;;;;;;;6.10;1.67;;;;;;;11.44;nan;99767.31;5052507;28;20064;-66
2022/04/08 09:03:04;;;;;;;5.22;1.40;;;;;;;11.38;nan;99775.53;5052819;28;20457;-67
2022/04/08 09:05:29;;;;;;;4.90;1.65;;;;;;;11.39;nan;99774.59;5067600;28;20037;-67
2022/04/08 09:07:59;;;;;;;7.90;1.65;;;;;;;11.08;nan;99781.47;5052815;28;20493;-66
2022/04/08 09:10:26;;;;;;;6.95;1.88;;;;;;;10.84;nan;99789.72;5052134;28;20044;-68
2022/04/08 09:12:55;;;;;;;5.40;1.75;;;;;;;10.54;nan;99782.41;5052630;28;20120;-68
2022/04/08 09:15:21;;;;;;;6.82;1.95;;;;;;;10.62;nan;99785.53;5052209;28;20045;-68
2022/04/08 09:17:46;;;;;;;4.97;1.30;;;;;;;10.65;nan;99797.69;5067815;28;20531;-66
2022/04/08 09:20:12;;;;;;;9.70;1.67;;;;;;;10.18;nan;99743.91;5052357;28;20037;-66
2022/04/08 09:22:37;;;;;;;3.30;1.30;;;;;;;10.13;nan;99796.69;5052238;28;20102;-68
2022/04/08 09:25:10;;;;;;;3.50;1.05;;;;;;;9.74;nan;99759.97;5051232;28;20082;-68
2022/04/08 09:27:40;;;;;;;5.10;1.50;;;;;;;9.51;nan;99741.75;5067454;28;20033;-66
2022/04/08 09:30:10;;;;;;;6.28;1.58;;;;;;;9.41;nan;99732.56;5067995;28;20033;-69
2022/04/08 09:32:36;;;;;;;6.10;1.60;;;;;;;9.03;nan;99660.78;5066494;28;20079;-69
2022/04/08 09:35:02;;;;;;;4.10;1.58;;;;;;;9.63;nan;99768.31;5067445;28;20043;-70
2022/04/08 09:37:31;;;;;;;4.05;1.58;;;;;;;9.52;nan;99772.34;5067132;28;20236;-68
2022/04/08 09:40:03;;;;;;;4.75;1.65;;;;;;;9.49;nan;99768.09;5066343;28;20057;-69
2022/04/08 09:42:45;;;;;;;8.65;2.58;;;;;;;9.24;nan;99717.59;5051797;28;20493;-68
2022/04/08 09:45:11;;;;;;;7.97;1.67;;;;;;;9.47;nan;99761.19;5051735;28;20036;-68
2022/04/08 09:47:37;;;;;;;6.03;1.70;;;;;;;9.19;nan;99706.44;5051769;28;20040;-69
2022/04/08 09:50:03;;;;;;;9.05;1.75;;;;;;;9.61;nan;99762.28;5067142;28;20542;-69
2022/04/08 09:52:28;;;;;;;5.53;1.80;;;;;;;9.56;nan;99708.25;5051404;28;20037;-68
2022/04/08 09:54:56;;;;;;;7.43;1.80;;;;;;;9.82;nan;99722.78;5051134;28;20124;-68
2022/04/08 09:57:23;;;;;;;5.07;1.83;;;;;;;10.31;nan;99769.53;5050209;28;20040;-69
2022/04/08 09:59:53;;;;;;;6.35;1.67;;;;;;;10.33;nan;99730.03;5050288;28;20124;-69
2022/04/08 10:02:18;;;;;;;6.07;2.53;;;;;;;10.88;nan;99778.13;5051416;28;20032;-71
2022/04/08 10:04:44;;;;;;;10.10;2.53;;;;;;;11.26;nan;99766.50;5050341;28;20279;-68
2022/04/08 10:07:10;;;;;;;5.78;2.03;;;;;;;11.68;nan;99766.00;5051403;28;20469;-71
2022/04/08 10:09:54;;;;;;;4.75;1.45;;;;;;;11.98;nan;99763.50;5066585;28;20496;-70
2022/04/08 10:12:34;;;;;;;5.97;1.50;;;;;;;12.10;nan;99784.78;5066525;28;20036;-69
2022/04/08 10:15:06;;;;;;;6.15;1.50;;;;;;;11.90;nan;99803.50;5050055;28;20080;-67
2022/04/08 10:17:31;;;;;;;5.03;1.35;;;;;;;11.70;nan;99791.38;5051241;28;20033;-70
2022/04/08 10:20:36;;;;;;;6.95;1.40;;;;;;;11.62;nan;99792.66;5049505;28;20044;-70
2022/04/08 10:23:09;;;;;;;4.50;1.50;;;;;;;11.77;nan;99790.13;5009235;28;20046;-68
2022/04/08 10:25:37;;;;;;;6.18;1.83;;;;;;;11.56;nan;99748.19;4992443;28;20069;-68
2022/04/08 10:28:03;;;;;;;4.68;1.25;;;;;;;12.08;nan;99802.50;5031541;28;20053;-66
2022/04/08 10:30:30;;;;;;;3.50;1.52;;;;;;;11.88;nan;99759.69;5051015;28;20437;-70
2022/04/08 10:32:59;;;;;;;6.32;1.95;;;;;;;11.65;nan;99769.66;5051129;28;20033;-70
2022/04/08 10:35:25;;;;;;;5.43;1.45;;;;;;;10.94;nan;99767.28;5049636;28;20103;-70
2022/04/08 10:38:08;;;;;;;4.60;1.23;;;;;;;10.65;nan;99784.53;5063752;28;20699;-69
2022/04/08 10:40:36;;;;;;;6.95;1.60;;;;;;;10.48;nan;99801.13;5048275;28;20056;-69
2022/04/08 10:43:05;;;;;;;5.30;1.50;;;;;;;10.58;nan;99805.03;5049120;28;20041;-70
2022/04/08 10:45:30;;;;;;;8.27;1.92;;;;;;;10.42;nan;99753.25;5050415;28;20073;-67
2022/04/08 10:48:00;;;;;;;4.90;1.48;;;;;;;10.40;nan;99752.44;5031809;28;20071;-70
2022/04/08 10:50:30;;;;;;;7.50;2.22;;;;;;;10.71;nan;99800.03;5049638;28;20064;-70
2022/04/08 10:53:08;;;;;;;4.87;1.93;;;;;;;10.61;nan;99806.66;5051709;28;20444;-67
2022/04/08 10:55:50;;;;;;;4.90;1.27;;;;;;;10.45;nan;99782.88;5051399;28;20044;-70
2022/04/08 10:58:31;;;;;;;6.65;1.30;;;;;;;10.40;nan;99774.34;5051199;28;20037;-70
2022/04/08 11:00:56;;;;;;;;;;;;;;;10.37;nan;99771.00;5051688;28;20433;-68
2022/04/08 11:03:28;;;;;;;4.13;1.10;;;;;;;10.15;nan;99723.88;5049750;28;20424;-70
2022/04/08 11:05:54;;;;;;;7.22;1.60;;;;;;;10.43;nan;99776.84;5049626;28;20310;-71
2022/04/08 11:08:22;;;;;;;5.63;1.88;;;;;;;10.60;nan;99786.53;5049870;28;20461;-70
2022/04/08 11:10:55;;;;;;;6.00;1.40;;;;;;;10.46;nan;99776.69;5048908;28;20032;-69
2022/04/08 11:13:21;;;;;;;8.13;1.98;;;;;;;10.06;nan;99695.34;5048524;28;20498;-70
2022/04/08 11:15:46;;;;;;;5.25;2.15;;;;;;;10.55;nan;99738.53;5049837;28;20077;-69
2022/04/08 11:18:11;;;;;;;5.93;1.70;;;;;;;10.80;nan;99777.66;5050999;28;20045;-72
2022/04/08 11:20:37;;;;;;;4.53;1.05;;;;;;;10.49;nan;99776.53;5032458;28;20045;-70
2022/04/08 11:23:02;;;;;;;4.03;1.20;;;;;;;10.40;nan;99765.59;5050769;28;20509;-70
2022/04/08 11:25:29;;;;;;;3.22;1.35;;;;;;;10.20;nan;99708.72;5049742;28;20111;-69
2022/04/08 11:28:02;;;;;;;6.00;1.70;;;;;;;10.47;nan;99764.38;5050858;28;20029;-71
2022/04/08 11:30:29;;;;;;;5.70;1.50;;;;;;;10.26;nan;99763.66;5051312;28;20069;-71
2022/04/08 11:32:55;;;;;;;4.15;1.13;;;;;;;9.97;nan;99708.94;5033309;28;20056;-72
2022/04/08 11:35:20;;;;;;;3.10;1.42;;;;;;;10.09;nan;99689.94;5051299;28;20436;-72
2022/04/08 11:37:46;;;;;;;3.35;1.50;;;;;;;10.56;nan;99777.09;5050812;28;20915;-70
2022/04/08 11:40:19;;;;;;;2.90;1.17;;;;;;;10.57;nan;99763.84;5032367;28;20255;-70
2022/04/08 11:42:48;;;;;;;3.92;1.63;;;;;;;10.62;nan;99711.84;5049325;28;20041;-72
2022/04/08 11:45:15;;;;;;;3.92;1.20;;;;;;;10.88;nan;99754.44;5033720;28;20123;-71
2022/04/08 11:47:48;;;;;;;4.60;1.33;;;;;;;10.78;nan;99724.22;5048110;28;20188;-69
2022/04/08 11:50:26;;;;;;;5.75;1.50;;;;;;;10.60;nan;99726.88;5045766;28;20055;-70